Vermilion, Ohio
Current Conditions -  °F | °C
As of 4:53 AM on Sunday 26 Oct 2014 (Local Time) from KLPR Reporting Station
Clear Clear  
Wind Chill: 51°   Ceiling: Unl
Heat Index: 51°   Visibility: 10mi
Dew Point: 35°   Wind: 12mph
Humidity: 54%   Direction: 330°NNW
Pressure: 29.87"   Gusts: 18mph
Location:  41.42°N, 82.36°W
Report Text: KLPR 260853Z AUTO 33010G16KT 10SM CLR 11/02 A2987 RMK AO2 SLP112 T01060017 51012 PWINO TSNO $
Loading
Personal Weather Stations






























Interactive Weather Map
Tropical Storm Tracking
New forecast layout! Learn more

10-Day Weather Forecast

Advertisements
Track Severe Weather on mobile